sensor_id;sensor_type;location;lat;lon;timestamp;P1;durP1;ratioP1;P2;durP2;ratioP2
3217;SDS011;1621;49.702;8.618;2022-12-29T00:01:57;4.37;;;2.53;;
3217;SDS011;1621;49.702;8.618;2022-12-29T00:04:23;4.47;;;2.93;;
3217;SDS011;1621;49.702;8.618;2022-12-29T00:06:50;4.97;;;2.40;;
3217;SDS011;1621;49.702;8.618;2022-12-29T00:09:16;5.07;;;2.60;;
3217;SDS011;1621;49.702;8.618;2022-12-29T00:11:42;4.60;;;2.43;;
3217;SDS011;1621;49.702;8.618;2022-12-29T00:14:09;4.30;;;2.40;;
3217;SDS011;1621;49.702;8.618;2022-12-29T00:16:53;4.50;;;2.60;;
3217;SDS011;1621;49.702;8.618;2022-12-29T00:19:21;6.27;;;3.10;;
3217;SDS011;1621;49.702;8.618;2022-12-29T00:22:05;4.37;;;2.60;;
3217;SDS011;1621;49.702;8.618;2022-12-29T00:24:49;5.17;;;2.80;;
3217;SDS011;1621;49.702;8.618;2022-12-29T00:27:44;5.10;;;2.90;;
3217;SDS011;1621;49.702;8.618;2022-12-29T00:30:28;4.73;;;2.47;;
3217;SDS011;1621;49.702;8.618;2022-12-29T00:33:13;4.00;;;2.60;;
3217;SDS011;1621;49.702;8.618;2022-12-29T00:35:59;4.80;;;2.97;;
3217;SDS011;1621;49.702;8.618;2022-12-29T00:38:26;3.83;;;2.53;;
3217;SDS011;1621;49.702;8.618;2022-12-29T00:41:10;4.13;;;2.70;;
3217;SDS011;1621;49.702;8.618;2022-12-29T00:43:54;4.60;;;2.73;;
3217;SDS011;1621;49.702;8.618;2022-12-29T00:46:35;4.70;;;2.60;;
3217;SDS011;1621;49.702;8.618;2022-12-29T00:49:02;4.67;;;2.53;;
3217;SDS011;1621;49.702;8.618;2022-12-29T00:51:47;4.77;;;2.53;;
3217;SDS011;1621;49.702;8.618;2022-12-29T00:54:14;4.60;;;2.70;;
3217;SDS011;1621;49.702;8.618;2022-12-29T00:56:40;4.40;;;2.77;;
3217;SDS011;1621;49.702;8.618;2022-12-29T00:59:07;3.90;;;2.20;;
3217;SDS011;1621;49.702;8.618;2022-12-29T01:01:34;6.43;;;2.70;;
3217;SDS011;1621;49.702;8.618;2022-12-29T01:04:00;5.07;;;2.20;;
3217;SDS011;1621;49.702;8.618;2022-12-29T01:06:27;5.43;;;2.07;;
3217;SDS011;1621;49.702;8.618;2022-12-29T01:08:55;5.50;;;2.40;;
3217;SDS011;1621;49.702;8.618;2022-12-29T01:11:35;3.03;;;1.63;;
3217;SDS011;1621;49.702;8.618;2022-12-29T01:14:01;4.63;;;1.80;;
3217;SDS011;1621;49.702;8.618;2022-12-29T01:16:27;3.30;;;1.73;;
3217;SDS011;1621;49.702;8.618;2022-12-29T01:18:54;5.03;;;1.90;;
3217;SDS011;1621;49.702;8.618;2022-12-29T01:21:20;3.77;;;1.80;;
3217;SDS011;1621;49.702;8.618;2022-12-29T01:23:46;3.00;;;1.67;;
3217;SDS011;1621;49.702;8.618;2022-12-29T01:26:14;4.30;;;1.80;;
3217;SDS011;1621;49.702;8.618;2022-12-29T01:28:41;2.90;;;1.70;;
3217;SDS011;1621;49.702;8.618;2022-12-29T01:31:07;4.63;;;2.23;;
3217;SDS011;1621;49.702;8.618;2022-12-29T01:33:34;4.63;;;1.77;;
3217;SDS011;1621;49.702;8.618;2022-12-29T01:36:00;4.00;;;1.80;;
3217;SDS011;1621;49.702;8.618;2022-12-29T01:38:27;4.83;;;1.83;;
3217;SDS011;1621;49.702;8.618;2022-12-29T01:40:53;2.80;;;1.50;;
3217;SDS011;1621;49.702;8.618;2022-12-29T01:43:21;4.80;;;2.20;;
3217;SDS011;1621;49.702;8.618;2022-12-29T01:45:47;11.30;;;2.10;;
3217;SDS011;1621;49.702;8.618;2022-12-29T01:48:14;3.00;;;1.77;;
3217;SDS011;1621;49.702;8.618;2022-12-29T01:50:43;3.47;;;1.70;;
3217;SDS011;1621;49.702;8.618;2022-12-29T01:53:13;3.53;;;1.70;;
3217;SDS011;1621;49.702;8.618;2022-12-29T01:55:42;3.10;;;1.57;;
3217;SDS011;1621;49.702;8.618;2022-12-29T01:58:10;3.00;;;1.80;;
3217;SDS011;1621;49.702;8.618;2022-12-29T02:00:38;3.43;;;1.93;;
3217;SDS011;1621;49.702;8.618;2022-12-29T02:03:05;3.03;;;1.60;;
3217;SDS011;1621;49.702;8.618;2022-12-29T02:05:32;3.40;;;1.70;;
3217;SDS011;1621;49.702;8.618;2022-12-29T02:07:59;2.90;;;1.57;;
3217;SDS011;1621;49.702;8.618;2022-12-29T02:10:27;3.40;;;1.37;;
3217;SDS011;1621;49.702;8.618;2022-12-29T02:12:56;2.20;;;1.23;;
3217;SDS011;1621;49.702;8.618;2022-12-29T02:15:24;3.03;;;1.20;;
3217;SDS011;1621;49.702;8.618;2022-12-29T02:17:58;8.20;;;1.70;;
3217;SDS011;1621;49.702;8.618;2022-12-29T02:26:04;2.70;;;1.20;;
3217;SDS011;1621;49.702;8.618;2022-12-29T02:28:43;3.67;;;1.20;;
3217;SDS011;1621;49.702;8.618;2022-12-29T02:31:14;3.17;;;1.30;;
3217;SDS011;1621;49.702;8.618;2022-12-29T02:33:44;3.23;;;1.40;;
3217;SDS011;1621;49.702;8.618;2022-12-29T02:36:14;2.73;;;1.33;;
3217;SDS011;1621;49.702;8.618;2022-12-29T02:38:56;7.47;;;1.43;;
3217;SDS011;1621;49.702;8.618;2022-12-29T02:41:27;2.50;;;1.27;;
3217;SDS011;1621;49.702;8.618;2022-12-29T02:43:56;2.73;;;1.60;;
3217;SDS011;1621;49.702;8.618;2022-12-29T02:46:27;2.27;;;1.27;;
3217;SDS011;1621;49.702;8.618;2022-12-29T02:48:56;4.27;;;1.40;;
3217;SDS011;1621;49.702;8.618;2022-12-29T02:51:24;3.00;;;1.33;;
3217;SDS011;1621;49.702;8.618;2022-12-29T02:53:52;2.30;;;1.07;;
3217;SDS011;1621;49.702;8.618;2022-12-29T02:56:36;2.83;;;1.57;;
3217;SDS011;1621;49.702;8.618;2022-12-29T02:59:03;3.60;;;1.20;;
3217;SDS011;1621;49.702;8.618;2022-12-29T03:01:33;3.20;;;1.33;;
3217;SDS011;1621;49.702;8.618;2022-12-29T03:04:03;2.97;;;1.50;;
3217;SDS011;1621;49.702;8.618;2022-12-29T03:06:35;2.80;;;1.23;;
3217;SDS011;1621;49.702;8.618;2022-12-29T03:09:07;3.57;;;1.40;;
3217;SDS011;1621;49.702;8.618;2022-12-29T03:11:37;4.83;;;1.50;;
3217;SDS011;1621;49.702;8.618;2022-12-29T03:14:25;4.67;;;1.77;;
3217;SDS011;1621;49.702;8.618;2022-12-29T03:17:13;5.90;;;1.30;;
3217;SDS011;1621;49.702;8.618;2022-12-29T03:19:44;3.03;;;1.30;;
3217;SDS011;1621;49.702;8.618;2022-12-29T03:22:12;3.17;;;1.40;;
3217;SDS011;1621;49.702;8.618;2022-12-29T03:24:57;2.83;;;1.67;;
3217;SDS011;1621;49.702;8.618;2022-12-29T03:27:25;2.30;;;1.20;;
3217;SDS011;1621;49.702;8.618;2022-12-29T03:29:54;3.03;;;1.50;;
3217;SDS011;1621;49.702;8.618;2022-12-29T03:32:24;4.10;;;1.63;;
3217;SDS011;1621;49.702;8.618;2022-12-29T03:34:51;2.57;;;1.37;;
3217;SDS011;1621;49.702;8.618;2022-12-29T03:37:20;2.30;;;1.07;;
3217;SDS011;1621;49.702;8.618;2022-12-29T03:39:48;3.30;;;1.60;;
3217;SDS011;1621;49.702;8.618;2022-12-29T03:42:15;4.50;;;2.00;;
3217;SDS011;1621;49.702;8.618;2022-12-29T03:44:42;4.47;;;1.77;;
3217;SDS011;1621;49.702;8.618;2022-12-29T03:47:09;2.47;;;1.40;;
3217;SDS011;1621;49.702;8.618;2022-12-29T03:49:37;2.70;;;1.47;;
3217;SDS011;1621;49.702;8.618;2022-12-29T03:52:04;3.40;;;1.53;;
3217;SDS011;1621;49.702;8.618;2022-12-29T03:54:30;3.07;;;1.63;;
3217;SDS011;1621;49.702;8.618;2022-12-29T03:56:57;3.57;;;1.50;;
3217;SDS011;1621;49.702;8.618;2022-12-29T03:59:23;4.67;;;1.70;;
3217;SDS011;1621;49.702;8.618;2022-12-29T04:01:49;5.03;;;1.57;;
3217;SDS011;1621;49.702;8.618;2022-12-29T04:04:16;6.10;;;1.70;;
3217;SDS011;1621;49.702;8.618;2022-12-29T04:06:43;4.87;;;1.83;;
3217;SDS011;1621;49.702;8.618;2022-12-29T04:09:09;3.70;;;1.67;;
3217;SDS011;1621;49.702;8.618;2022-12-29T04:11:36;3.83;;;1.93;;
3217;SDS011;1621;49.702;8.618;2022-12-29T04:14:02;4.10;;;1.60;;
3217;SDS011;1621;49.702;8.618;2022-12-29T04:16:28;3.00;;;1.60;;
3217;SDS011;1621;49.702;8.618;2022-12-29T04:18:54;3.07;;;1.70;;
3217;SDS011;1621;49.702;8.618;2022-12-29T04:21:21;2.70;;;1.37;;
3217;SDS011;1621;49.702;8.618;2022-12-29T04:23:48;2.93;;;1.40;;
3217;SDS011;1621;49.702;8.618;2022-12-29T04:26:14;8.10;;;1.60;;
3217;SDS011;1621;49.702;8.618;2022-12-29T04:28:41;3.70;;;1.60;;
3217;SDS011;1621;49.702;8.618;2022-12-29T04:31:07;2.50;;;1.43;;
3217;SDS011;1621;49.702;8.618;2022-12-29T04:33:33;6.53;;;1.90;;
3217;SDS011;1621;49.702;8.618;2022-12-29T04:35:59;4.20;;;1.50;;
3217;SDS011;1621;49.702;8.618;2022-12-29T04:38:26;3.80;;;1.87;;
3217;SDS011;1621;49.702;8.618;2022-12-29T04:40:53;3.37;;;1.60;;
3217;SDS011;1621;49.702;8.618;2022-12-29T04:43:20;2.97;;;1.80;;
3217;SDS011;1621;49.702;8.618;2022-12-29T04:45:47;4.33;;;1.97;;
3217;SDS011;1621;49.702;8.618;2022-12-29T04:48:13;3.03;;;1.63;;
3217;SDS011;1621;49.702;8.618;2022-12-29T04:50:40;2.40;;;1.43;;
3217;SDS011;1621;49.702;8.618;2022-12-29T04:53:07;4.67;;;2.00;;
3217;SDS011;1621;49.702;8.618;2022-12-29T04:55:33;3.70;;;1.50;;
3217;SDS011;1621;49.702;8.618;2022-12-29T04:58:01;3.00;;;1.80;;
3217;SDS011;1621;49.702;8.618;2022-12-29T05:00:27;3.43;;;1.87;;
3217;SDS011;1621;49.702;8.618;2022-12-29T05:02:53;4.00;;;2.07;;
3217;SDS011;1621;49.702;8.618;2022-12-29T05:05:19;3.73;;;1.77;;
3217;SDS011;1621;49.702;8.618;2022-12-29T05:07:46;2.70;;;1.60;;
3217;SDS011;1621;49.702;8.618;2022-12-29T05:10:12;3.40;;;1.47;;
3217;SDS011;1621;49.702;8.618;2022-12-29T05:12:38;3.83;;;1.60;;
3217;SDS011;1621;49.702;8.618;2022-12-29T05:15:07;3.23;;;1.50;;
3217;SDS011;1621;49.702;8.618;2022-12-29T05:17:34;3.30;;;1.53;;
3217;SDS011;1621;49.702;8.618;2022-12-29T05:20:00;3.87;;;1.70;;
3217;SDS011;1621;49.702;8.618;2022-12-29T05:22:26;3.63;;;1.80;;
3217;SDS011;1621;49.702;8.618;2022-12-29T05:24:52;4.83;;;2.00;;
3217;SDS011;1621;49.702;8.618;2022-12-29T05:27:19;3.60;;;1.80;;
3217;SDS011;1621;49.702;8.618;2022-12-29T05:29:45;2.87;;;1.80;;
3217;SDS011;1621;49.702;8.618;2022-12-29T05:32:12;3.57;;;1.87;;
3217;SDS011;1621;49.702;8.618;2022-12-29T05:34:39;2.90;;;1.57;;
3217;SDS011;1621;49.702;8.618;2022-12-29T05:37:05;3.37;;;1.80;;
3217;SDS011;1621;49.702;8.618;2022-12-29T05:39:31;3.80;;;2.10;;
3217;SDS011;1621;49.702;8.618;2022-12-29T05:41:57;4.83;;;2.03;;
3217;SDS011;1621;49.702;8.618;2022-12-29T05:44:24;3.70;;;1.67;;
3217;SDS011;1621;49.702;8.618;2022-12-29T05:46:50;4.80;;;1.50;;
3217;SDS011;1621;49.702;8.618;2022-12-29T05:49:18;4.13;;;1.43;;
3217;SDS011;1621;49.702;8.618;2022-12-29T05:51:44;3.80;;;1.60;;
3217;SDS011;1621;49.702;8.618;2022-12-29T05:54:10;4.00;;;1.57;;
3217;SDS011;1621;49.702;8.618;2022-12-29T05:56:37;2.93;;;1.60;;
3217;SDS011;1621;49.702;8.618;2022-12-29T05:59:03;3.90;;;1.60;;
3217;SDS011;1621;49.702;8.618;2022-12-29T06:01:29;2.80;;;1.50;;
3217;SDS011;1621;49.702;8.618;2022-12-29T06:03:55;6.93;;;1.57;;
3217;SDS011;1621;49.702;8.618;2022-12-29T06:06:23;2.93;;;1.40;;
3217;SDS011;1621;49.702;8.618;2022-12-29T06:08:49;2.70;;;1.50;;
3217;SDS011;1621;49.702;8.618;2022-12-29T06:11:15;2.97;;;1.30;;
3217;SDS011;1621;49.702;8.618;2022-12-29T06:13:42;4.73;;;1.63;;
3217;SDS011;1621;49.702;8.618;2022-12-29T06:16:08;4.13;;;1.40;;
3217;SDS011;1621;49.702;8.618;2022-12-29T06:18:34;2.60;;;1.47;;
3217;SDS011;1621;49.702;8.618;2022-12-29T06:21:00;7.03;;;1.60;;
3217;SDS011;1621;49.702;8.618;2022-12-29T06:23:28;3.00;;;1.73;;
3217;SDS011;1621;49.702;8.618;2022-12-29T06:25:54;5.97;;;2.07;;
3217;SDS011;1621;49.702;8.618;2022-12-29T06:28:21;3.77;;;1.77;;
3217;SDS011;1621;49.702;8.618;2022-12-29T06:30:47;3.20;;;1.60;;
3217;SDS011;1621;49.702;8.618;2022-12-29T06:33:14;3.57;;;2.07;;
3217;SDS011;1621;49.702;8.618;2022-12-29T06:35:41;4.30;;;1.43;;
3217;SDS011;1621;49.702;8.618;2022-12-29T06:38:07;3.23;;;1.70;;
3217;SDS011;1621;49.702;8.618;2022-12-29T06:40:35;5.63;;;1.77;;
3217;SDS011;1621;49.702;8.618;2022-12-29T06:43:01;2.90;;;1.60;;
3217;SDS011;1621;49.702;8.618;2022-12-29T06:45:27;4.77;;;1.60;;
3217;SDS011;1621;49.702;8.618;2022-12-29T06:47:54;5.07;;;2.83;;
3217;SDS011;1621;49.702;8.618;2022-12-29T06:50:20;3.20;;;2.10;;
3217;SDS011;1621;49.702;8.618;2022-12-29T06:52:46;3.00;;;1.70;;
3217;SDS011;1621;49.702;8.618;2022-12-29T06:55:13;2.97;;;1.67;;
3217;SDS011;1621;49.702;8.618;2022-12-29T06:57:40;5.93;;;1.70;;
3217;SDS011;1621;49.702;8.618;2022-12-29T07:00:07;5.90;;;2.17;;
3217;SDS011;1621;49.702;8.618;2022-12-29T07:02:34;3.23;;;1.77;;
3217;SDS011;1621;49.702;8.618;2022-12-29T07:05:00;3.60;;;1.90;;
3217;SDS011;1621;49.702;8.618;2022-12-29T07:07:26;3.00;;;1.80;;
3217;SDS011;1621;49.702;8.618;2022-12-29T07:09:52;5.20;;;1.90;;
3217;SDS011;1621;49.702;8.618;2022-12-29T07:12:19;4.87;;;2.30;;
3217;SDS011;1621;49.702;8.618;2022-12-29T07:14:46;3.20;;;1.63;;
3217;SDS011;1621;49.702;8.618;2022-12-29T07:17:13;3.53;;;1.90;;
3217;SDS011;1621;49.702;8.618;2022-12-29T07:19:40;5.63;;;2.33;;
3217;SDS011;1621;49.702;8.618;2022-12-29T07:22:06;4.50;;;2.00;;
3217;SDS011;1621;49.702;8.618;2022-12-29T07:24:32;4.10;;;2.00;;
3217;SDS011;1621;49.702;8.618;2022-12-29T07:26:58;6.60;;;2.40;;
3217;SDS011;1621;49.702;8.618;2022-12-29T07:29:25;4.00;;;1.83;;
3217;SDS011;1621;49.702;8.618;2022-12-29T07:31:52;5.10;;;2.47;;
3217;SDS011;1621;49.702;8.618;2022-12-29T07:34:18;4.33;;;2.20;;
3217;SDS011;1621;49.702;8.618;2022-12-29T07:36:45;9.77;;;2.10;;
3217;SDS011;1621;49.702;8.618;2022-12-29T07:39:11;3.67;;;2.10;;
3217;SDS011;1621;49.702;8.618;2022-12-29T07:41:37;3.27;;;2.10;;
3217;SDS011;1621;49.702;8.618;2022-12-29T07:44:04;7.70;;;2.20;;
3217;SDS011;1621;49.702;8.618;2022-12-29T07:46:30;3.53;;;1.80;;
3217;SDS011;1621;49.702;8.618;2022-12-29T07:48:57;3.80;;;1.93;;
3217;SDS011;1621;49.702;8.618;2022-12-29T07:51:24;4.70;;;2.30;;
3217;SDS011;1621;49.702;8.618;2022-12-29T07:53:50;3.43;;;2.33;;
3217;SDS011;1621;49.702;8.618;2022-12-29T07:56:16;4.20;;;2.60;;
3217;SDS011;1621;49.702;8.618;2022-12-29T07:58:42;4.50;;;2.07;;
3217;SDS011;1621;49.702;8.618;2022-12-29T08:01:09;8.57;;;2.23;;
3217;SDS011;1621;49.702;8.618;2022-12-29T08:03:35;4.00;;;2.23;;
3217;SDS011;1621;49.702;8.618;2022-12-29T08:06:04;3.60;;;2.20;;
3217;SDS011;1621;49.702;8.618;2022-12-29T08:08:30;4.70;;;2.90;;
3217;SDS011;1621;49.702;8.618;2022-12-29T08:10:57;5.03;;;2.60;;
3217;SDS011;1621;49.702;8.618;2022-12-29T08:13:23;3.13;;;2.03;;
3217;SDS011;1621;49.702;8.618;2022-12-29T08:15:49;5.23;;;2.10;;
3217;SDS011;1621;49.702;8.618;2022-12-29T08:18:15;4.10;;;2.30;;
3217;SDS011;1621;49.702;8.618;2022-12-29T08:20:42;3.53;;;1.80;;
3217;SDS011;1621;49.702;8.618;2022-12-29T08:23:09;3.80;;;2.10;;
3217;SDS011;1621;49.702;8.618;2022-12-29T08:25:35;3.80;;;2.13;;
3217;SDS011;1621;49.702;8.618;2022-12-29T08:28:02;4.80;;;2.30;;
3217;SDS011;1621;49.702;8.618;2022-12-29T08:30:28;4.37;;;2.60;;
3217;SDS011;1621;49.702;8.618;2022-12-29T08:32:54;7.23;;;2.83;;
3217;SDS011;1621;49.702;8.618;2022-12-29T08:35:21;4.30;;;2.27;;
3217;SDS011;1621;49.702;8.618;2022-12-29T08:37:47;2.90;;;2.00;;
3217;SDS011;1621;49.702;8.618;2022-12-29T08:40:14;4.60;;;2.40;;
3217;SDS011;1621;49.702;8.618;2022-12-29T08:42:41;5.03;;;2.30;;
3217;SDS011;1621;49.702;8.618;2022-12-29T08:45:07;4.70;;;2.30;;
3217;SDS011;1621;49.702;8.618;2022-12-29T08:47:34;3.63;;;2.30;;
3217;SDS011;1621;49.702;8.618;2022-12-29T08:50:00;4.50;;;2.60;;
3217;SDS011;1621;49.702;8.618;2022-12-29T08:52:27;4.30;;;2.60;;
3217;SDS011;1621;49.702;8.618;2022-12-29T08:54:53;5.70;;;2.50;;
3217;SDS011;1621;49.702;8.618;2022-12-29T08:57:21;4.80;;;2.40;;
3217;SDS011;1621;49.702;8.618;2022-12-29T08:59:47;7.67;;;2.83;;
3217;SDS011;1621;49.702;8.618;2022-12-29T09:02:13;4.10;;;2.40;;
3217;SDS011;1621;49.702;8.618;2022-12-29T09:04:39;4.73;;;2.57;;
3217;SDS011;1621;49.702;8.618;2022-12-29T09:07:06;6.30;;;2.90;;
3217;SDS011;1621;49.702;8.618;2022-12-29T09:09:32;5.00;;;2.53;;
3217;SDS011;1621;49.702;8.618;2022-12-29T09:11:58;4.43;;;2.40;;
3217;SDS011;1621;49.702;8.618;2022-12-29T09:14:26;5.23;;;2.77;;
3217;SDS011;1621;49.702;8.618;2022-12-29T09:16:53;3.70;;;2.60;;
3217;SDS011;1621;49.702;8.618;2022-12-29T09:19:37;5.00;;;2.43;;
3217;SDS011;1621;49.702;8.618;2022-12-29T09:22:03;7.77;;;3.23;;
3217;SDS011;1621;49.702;8.618;2022-12-29T09:24:30;4.37;;;2.97;;
3217;SDS011;1621;49.702;8.618;2022-12-29T09:26:56;5.63;;;2.27;;
3217;SDS011;1621;49.702;8.618;2022-12-29T09:29:22;6.00;;;2.67;;
3217;SDS011;1621;49.702;8.618;2022-12-29T09:31:50;4.73;;;2.60;;
3217;SDS011;1621;49.702;8.618;2022-12-29T09:34:16;3.50;;;2.40;;
3217;SDS011;1621;49.702;8.618;2022-12-29T09:36:43;5.97;;;2.37;;
3217;SDS011;1621;49.702;8.618;2022-12-29T09:39:09;4.20;;;2.70;;
3217;SDS011;1621;49.702;8.618;2022-12-29T09:41:36;4.70;;;2.50;;
3217;SDS011;1621;49.702;8.618;2022-12-29T09:44:05;4.27;;;2.70;;
3217;SDS011;1621;49.702;8.618;2022-12-29T09:46:33;4.37;;;2.40;;
3217;SDS011;1621;49.702;8.618;2022-12-29T09:49:06;7.23;;;2.13;;
3217;SDS011;1621;49.702;8.618;2022-12-29T09:51:33;3.53;;;2.40;;
3217;SDS011;1621;49.702;8.618;2022-12-29T09:54:02;8.13;;;2.77;;
3217;SDS011;1621;49.702;8.618;2022-12-29T09:56:30;6.53;;;2.27;;
3217;SDS011;1621;49.702;8.618;2022-12-29T09:58:57;3.87;;;2.40;;
3217;SDS011;1621;49.702;8.618;2022-12-29T10:01:27;6.33;;;2.30;;
3217;SDS011;1621;49.702;8.618;2022-12-29T10:03:56;3.00;;;2.13;;
3217;SDS011;1621;49.702;8.618;2022-12-29T10:06:24;5.20;;;2.30;;
3217;SDS011;1621;49.702;8.618;2022-12-29T10:08:53;4.83;;;2.47;;
3217;SDS011;1621;49.702;8.618;2022-12-29T10:11:24;5.90;;;2.23;;
3217;SDS011;1621;49.702;8.618;2022-12-29T10:14:00;3.83;;;2.10;;
3217;SDS011;1621;49.702;8.618;2022-12-29T10:16:33;3.60;;;2.30;;
3217;SDS011;1621;49.702;8.618;2022-12-29T10:19:05;4.40;;;2.00;;
3217;SDS011;1621;49.702;8.618;2022-12-29T10:21:39;5.53;;;2.17;;
3217;SDS011;1621;49.702;8.618;2022-12-29T10:24:09;2.93;;;1.90;;
3217;SDS011;1621;49.702;8.618;2022-12-29T10:26:37;4.07;;;1.77;;
3217;SDS011;1621;49.702;8.618;2022-12-29T10:29:05;4.50;;;2.10;;
3217;SDS011;1621;49.702;8.618;2022-12-29T10:31:32;4.33;;;1.90;;
3217;SDS011;1621;49.702;8.618;2022-12-29T10:34:00;3.57;;;2.03;;
3217;SDS011;1621;49.702;8.618;2022-12-29T10:36:29;3.87;;;2.20;;
3217;SDS011;1621;49.702;8.618;2022-12-29T10:39:02;3.10;;;1.50;;
3217;SDS011;1621;49.702;8.618;2022-12-29T10:41:32;4.30;;;2.20;;
3217;SDS011;1621;49.702;8.618;2022-12-29T10:44:00;2.70;;;1.73;;
3217;SDS011;1621;49.702;8.618;2022-12-29T10:46:27;7.93;;;2.30;;
3217;SDS011;1621;49.702;8.618;2022-12-29T10:48:54;6.10;;;2.43;;
3217;SDS011;1621;49.702;8.618;2022-12-29T10:51:21;4.33;;;1.93;;
3217;SDS011;1621;49.702;8.618;2022-12-29T10:53:48;4.00;;;2.10;;
3217;SDS011;1621;49.702;8.618;2022-12-29T10:56:20;4.50;;;2.73;;
3217;SDS011;1621;49.702;8.618;2022-12-29T10:58:48;4.50;;;2.27;;
3217;SDS011;1621;49.702;8.618;2022-12-29T11:01:15;4.43;;;1.80;;
3217;SDS011;1621;49.702;8.618;2022-12-29T11:03:46;3.13;;;1.37;;
3217;SDS011;1621;49.702;8.618;2022-12-29T11:06:16;3.33;;;1.57;;
3217;SDS011;1621;49.702;8.618;2022-12-29T11:08:46;6.33;;;2.10;;
3217;SDS011;1621;49.702;8.618;2022-12-29T11:11:21;4.20;;;1.73;;
3217;SDS011;1621;49.702;8.618;2022-12-29T11:13:48;3.37;;;2.13;;
3217;SDS011;1621;49.702;8.618;2022-12-29T11:16:16;6.27;;;1.80;;
3217;SDS011;1621;49.702;8.618;2022-12-29T11:18:52;2.67;;;1.53;;
3217;SDS011;1621;49.702;8.618;2022-12-29T11:21:25;3.33;;;1.60;;
3217;SDS011;1621;49.702;8.618;2022-12-29T11:23:54;3.77;;;1.70;;
3217;SDS011;1621;49.702;8.618;2022-12-29T11:26:22;2.90;;;1.37;;
3217;SDS011;1621;49.702;8.618;2022-12-29T11:29:04;4.67;;;1.83;;
3217;SDS011;1621;49.702;8.618;2022-12-29T11:31:33;3.63;;;2.20;;
3217;SDS011;1621;49.702;8.618;2022-12-29T11:34:05;3.50;;;2.20;;
3217;SDS011;1621;49.702;8.618;2022-12-29T11:36:32;5.07;;;2.23;;
3217;SDS011;1621;49.702;8.618;2022-12-29T11:38:59;9.10;;;2.40;;
3217;SDS011;1621;49.702;8.618;2022-12-29T11:41:27;3.90;;;2.00;;
3217;SDS011;1621;49.702;8.618;2022-12-29T11:43:55;3.17;;;1.83;;
3217;SDS011;1621;49.702;8.618;2022-12-29T11:46:22;5.10;;;2.53;;
3217;SDS011;1621;49.702;8.618;2022-12-29T11:48:50;5.10;;;2.43;;
3217;SDS011;1621;49.702;8.618;2022-12-29T11:51:22;4.53;;;2.30;;
3217;SDS011;1621;49.702;8.618;2022-12-29T11:53:50;4.10;;;2.33;;
3217;SDS011;1621;49.702;8.618;2022-12-29T11:56:17;3.50;;;2.03;;
3217;SDS011;1621;49.702;8.618;2022-12-29T11:58:48;3.00;;;1.80;;
3217;SDS011;1621;49.702;8.618;2022-12-29T12:01:16;5.47;;;1.63;;
3217;SDS011;1621;49.702;8.618;2022-12-29T12:03:44;4.33;;;1.80;;
3217;SDS011;1621;49.702;8.618;2022-12-29T12:06:14;3.70;;;1.73;;
3217;SDS011;1621;49.702;8.618;2022-12-29T12:08:43;3.63;;;1.80;;
3217;SDS011;1621;49.702;8.618;2022-12-29T12:11:12;4.10;;;1.90;;
3217;SDS011;1621;49.702;8.618;2022-12-29T12:13:40;3.50;;;1.93;;
3217;SDS011;1621;49.702;8.618;2022-12-29T12:16:11;3.20;;;1.70;;
3217;SDS011;1621;49.702;8.618;2022-12-29T12:18:40;12.30;;;2.03;;
3217;SDS011;1621;49.702;8.618;2022-12-29T12:21:13;3.63;;;1.97;;
3217;SDS011;1621;49.702;8.618;2022-12-29T12:23:44;3.13;;;1.60;;
3217;SDS011;1621;49.702;8.618;2022-12-29T12:26:15;4.37;;;1.83;;
3217;SDS011;1621;49.702;8.618;2022-12-29T12:28:44;5.37;;;1.90;;
3217;SDS011;1621;49.702;8.618;2022-12-29T12:31:16;4.60;;;1.40;;
3217;SDS011;1621;49.702;8.618;2022-12-29T12:33:44;2.87;;;1.40;;
3217;SDS011;1621;49.702;8.618;2022-12-29T12:36:16;3.30;;;1.70;;
3217;SDS011;1621;49.702;8.618;2022-12-29T12:38:48;6.33;;;2.20;;
3217;SDS011;1621;49.702;8.618;2022-12-29T12:41:16;2.70;;;1.50;;
3217;SDS011;1621;49.702;8.618;2022-12-29T12:43:46;4.93;;;2.10;;
3217;SDS011;1621;49.702;8.618;2022-12-29T12:46:30;4.80;;;1.90;;
3217;SDS011;1621;49.702;8.618;2022-12-29T12:49:04;3.83;;;2.33;;
3217;SDS011;1621;49.702;8.618;2022-12-29T12:51:35;4.43;;;1.90;;
3217;SDS011;1621;49.702;8.618;2022-12-29T12:54:09;4.33;;;2.23;;
3217;SDS011;1621;49.702;8.618;2022-12-29T12:56:41;6.23;;;2.20;;
3217;SDS011;1621;49.702;8.618;2022-12-29T12:59:12;4.40;;;2.10;;
3217;SDS011;1621;49.702;8.618;2022-12-29T13:01:46;3.60;;;2.00;;
3217;SDS011;1621;49.702;8.618;2022-12-29T13:04:28;2.90;;;1.77;;
3217;SDS011;1621;49.702;8.618;2022-12-29T13:07:01;3.93;;;2.40;;
3217;SDS011;1621;49.702;8.618;2022-12-29T13:09:31;3.17;;;1.83;;
3217;SDS011;1621;49.702;8.618;2022-12-29T13:12:03;4.53;;;2.30;;
3217;SDS011;1621;49.702;8.618;2022-12-29T13:14:36;3.50;;;1.90;;
3217;SDS011;1621;49.702;8.618;2022-12-29T13:17:08;6.00;;;2.00;;
3217;SDS011;1621;49.702;8.618;2022-12-29T13:19:38;3.53;;;1.90;;
3217;SDS011;1621;49.702;8.618;2022-12-29T13:22:08;3.77;;;1.87;;
3217;SDS011;1621;49.702;8.618;2022-12-29T13:24:39;3.70;;;1.60;;
3217;SDS011;1621;49.702;8.618;2022-12-29T13:27:09;5.23;;;2.00;;
3217;SDS011;1621;49.702;8.618;2022-12-29T13:29:39;3.70;;;1.83;;
3217;SDS011;1621;49.702;8.618;2022-12-29T13:32:13;3.90;;;1.50;;
3217;SDS011;1621;49.702;8.618;2022-12-29T13:34:44;5.60;;;2.00;;
3217;SDS011;1621;49.702;8.618;2022-12-29T13:37:12;4.27;;;1.50;;
3217;SDS011;1621;49.702;8.618;2022-12-29T13:39:40;2.87;;;1.57;;
3217;SDS011;1621;49.702;8.618;2022-12-29T13:42:08;4.67;;;1.33;;
3217;SDS011;1621;49.702;8.618;2022-12-29T13:44:35;4.47;;;1.70;;
3217;SDS011;1621;49.702;8.618;2022-12-29T13:47:05;2.43;;;1.20;;
3217;SDS011;1621;49.702;8.618;2022-12-29T13:49:34;3.57;;;1.33;;
3217;SDS011;1621;49.702;8.618;2022-12-29T13:52:04;4.50;;;1.90;;
3217;SDS011;1621;49.702;8.618;2022-12-29T13:54:35;4.00;;;1.60;;
3217;SDS011;1621;49.702;8.618;2022-12-29T13:57:05;4.00;;;1.87;;
3217;SDS011;1621;49.702;8.618;2022-12-29T13:59:36;3.60;;;1.63;;
3217;SDS011;1621;49.702;8.618;2022-12-29T14:02:08;4.37;;;1.63;;
3217;SDS011;1621;49.702;8.618;2022-12-29T14:04:40;8.43;;;1.83;;
3217;SDS011;1621;49.702;8.618;2022-12-29T14:07:20;3.87;;;1.77;;
3217;SDS011;1621;49.702;8.618;2022-12-29T14:09:47;5.80;;;1.70;;
3217;SDS011;1621;49.702;8.618;2022-12-29T14:12:20;4.50;;;1.60;;
3217;SDS011;1621;49.702;8.618;2022-12-29T14:14:48;3.53;;;1.60;;
3217;SDS011;1621;49.702;8.618;2022-12-29T14:17:16;2.80;;;1.20;;
3217;SDS011;1621;49.702;8.618;2022-12-29T14:19:46;2.57;;;1.40;;
3217;SDS011;1621;49.702;8.618;2022-12-29T14:22:22;4.17;;;1.30;;
3217;SDS011;1621;49.702;8.618;2022-12-29T14:24:48;3.80;;;1.50;;
3217;SDS011;1621;49.702;8.618;2022-12-29T14:30:00;3.40;;;1.50;;
3217;SDS011;1621;49.702;8.618;2022-12-29T14:32:36;3.03;;;1.23;;
3217;SDS011;1621;49.702;8.618;2022-12-29T14:37:50;5.33;;;1.93;;
3217;SDS011;1621;49.702;8.618;2022-12-29T14:40:31;4.17;;;1.27;;
3217;SDS011;1621;49.702;8.618;2022-12-29T14:42:58;3.10;;;1.27;;
3217;SDS011;1621;49.702;8.618;2022-12-29T14:45:26;3.10;;;1.30;;
3217;SDS011;1621;49.702;8.618;2022-12-29T14:47:52;5.33;;;1.83;;
3217;SDS011;1621;49.702;8.618;2022-12-29T14:50:21;2.90;;;1.37;;
3217;SDS011;1621;49.702;8.618;2022-12-29T14:52:49;3.27;;;1.50;;
3217;SDS011;1621;49.702;8.618;2022-12-29T14:55:31;3.23;;;1.37;;
3217;SDS011;1621;49.702;8.618;2022-12-29T14:58:02;3.50;;;1.50;;
3217;SDS011;1621;49.702;8.618;2022-12-29T15:00:30;5.83;;;2.60;;
3217;SDS011;1621;49.702;8.618;2022-12-29T15:03:02;9.33;;;2.07;;
3217;SDS011;1621;49.702;8.618;2022-12-29T15:05:30;4.50;;;2.10;;
3217;SDS011;1621;49.702;8.618;2022-12-29T15:07:57;9.40;;;2.30;;
3217;SDS011;1621;49.702;8.618;2022-12-29T15:10:24;6.03;;;2.67;;
3217;SDS011;1621;49.702;8.618;2022-12-29T15:12:53;8.30;;;3.50;;
3217;SDS011;1621;49.702;8.618;2022-12-29T15:15:21;6.67;;;2.53;;
3217;SDS011;1621;49.702;8.618;2022-12-29T15:17:49;4.30;;;1.70;;
3217;SDS011;1621;49.702;8.618;2022-12-29T15:20:20;3.77;;;1.70;;
3217;SDS011;1621;49.702;8.618;2022-12-29T15:22:47;6.67;;;2.33;;
3217;SDS011;1621;49.702;8.618;2022-12-29T15:25:15;3.23;;;1.80;;
3217;SDS011;1621;49.702;8.618;2022-12-29T15:27:42;5.77;;;1.90;;
3217;SDS011;1621;49.702;8.618;2022-12-29T15:30:15;5.70;;;1.63;;
3217;SDS011;1621;49.702;8.618;2022-12-29T15:32:42;4.80;;;2.30;;
3217;SDS011;1621;49.702;8.618;2022-12-29T15:35:28;4.47;;;1.70;;
3217;SDS011;1621;49.702;8.618;2022-12-29T15:37:54;5.57;;;1.90;;